sensor_id;sensor_type;location;lat;lon;timestamp;pressure;altitude;pressure_sealevel;temperature;humidity
41945;BME280;63122;52.424;13.458;2023-02-18T00:00:38;100878.53;;;6.26;100.00
41945;BME280;63122;52.424;13.458;2023-02-18T00:02:47;100909.00;;;6.27;100.00
41945;BME280;63122;52.424;13.458;2023-02-18T00:04:43;100897.91;;;6.23;100.00
41945;BME280;63122;52.424;13.458;2023-02-18T00:06:42;100883.63;;;6.27;100.00
41945;BME280;63122;52.424;13.458;2023-02-18T00:08:40;100893.91;;;6.30;100.00
41945;BME280;63122;52.424;13.458;2023-02-18T00:10:35;100892.69;;;6.23;100.00
41945;BME280;63122;52.424;13.458;2023-02-18T00:12:31;100900.78;;;6.20;100.00
41945;BME280;63122;52.424;13.458;2023-02-18T00:14:26;100892.69;;;6.23;100.00
41945;BME280;63122;52.424;13.458;2023-02-18T00:16:22;100884.00;;;6.23;100.00
41945;BME280;63122;52.424;13.458;2023-02-18T00:18:21;100877.91;;;6.22;100.00
41945;BME280;63122;52.424;13.458;2023-02-18T00:20:16;100893.06;;;6.18;100.00
41945;BME280;63122;52.424;13.458;2023-02-18T00:22:11;100903.88;;;6.14;100.00
41945;BME280;63122;52.424;13.458;2023-02-18T00:24:21;100897.91;;;6.12;100.00
41945;BME280;63122;52.424;13.458;2023-02-18T00:26:58;100890.44;;;6.18;100.00
41945;BME280;63122;52.424;13.458;2023-02-18T00:29:27;100895.66;;;6.18;100.00
41945;BME280;63122;52.424;13.458;2023-02-18T00:31:25;100931.13;;;6.11;100.00
41945;BME280;63122;52.424;13.458;2023-02-18T00:33:40;100902.53;;;6.08;100.00
41945;BME280;63122;52.424;13.458;2023-02-18T00:36:18;100884.81;;;6.12;100.00
41945;BME280;63122;52.424;13.458;2023-02-18T00:38:10;100898.16;;;6.09;100.00
41945;BME280;63122;52.424;13.458;2023-02-18T00:42:32;100900.59;;;5.99;100.00
41945;BME280;63122;52.424;13.458;2023-02-18T00:44:34;100918.50;;;6.05;100.00
41945;BME280;63122;52.424;13.458;2023-02-18T00:46:29;100905.53;;;6.03;100.00
41945;BME280;63122;52.424;13.458;2023-02-18T00:48:41;100908.56;;;5.97;100.00
41945;BME280;63122;52.424;13.458;2023-02-18T00:50:39;100896.31;;;5.98;100.00
41945;BME280;63122;52.424;13.458;2023-02-18T00:52:50;100918.44;;;5.94;100.00
41945;BME280;63122;52.424;13.458;2023-02-18T00:54:59;100908.53;;;5.86;100.00
41945;BME280;63122;52.424;13.458;2023-02-18T00:57:02;100912.72;;;5.88;100.00
41945;BME280;63122;52.424;13.458;2023-02-18T00:59:02;100917.44;;;5.83;100.00
41945;BME280;63122;52.424;13.458;2023-02-18T01:01:18;100918.16;;;5.85;100.00
41945;BME280;63122;52.424;13.458;2023-02-18T01:03:28;100924.59;;;5.81;100.00
41945;BME280;63122;52.424;13.458;2023-02-18T01:05:26;100912.44;;;5.80;100.00
41945;BME280;63122;52.424;13.458;2023-02-18T01:07:23;100916.13;;;5.78;100.00
41945;BME280;63122;52.424;13.458;2023-02-18T01:09:19;100911.94;;;5.75;100.00
41945;BME280;63122;52.424;13.458;2023-02-18T01:11:21;100926.00;;;5.74;100.00
41945;BME280;63122;52.424;13.458;2023-02-18T01:13:16;100924.94;;;5.76;100.00
41945;BME280;63122;52.424;13.458;2023-02-18T01:15:14;100893.63;;;5.75;100.00
41945;BME280;63122;52.424;13.458;2023-02-18T01:17:15;100909.66;;;5.70;100.00
41945;BME280;63122;52.424;13.458;2023-02-18T01:19:11;100909.78;;;5.69;100.00
41945;BME280;63122;52.424;13.458;2023-02-18T01:21:07;100917.31;;;5.73;100.00
41945;BME280;63122;52.424;13.458;2023-02-18T01:23:07;100915.41;;;5.75;100.00
41945;BME280;63122;52.424;13.458;2023-02-18T01:25:05;100895.84;;;5.68;100.00
41945;BME280;63122;52.424;13.458;2023-02-18T01:27:00;100913.22;;;5.69;100.00
41945;BME280;63122;52.424;13.458;2023-02-18T01:28:55;100939.88;;;5.63;100.00
41945;BME280;63122;52.424;13.458;2023-02-18T01:30:55;100913.81;;;5.61;100.00
41945;BME280;63122;52.424;13.458;2023-02-18T01:32:50;100907.03;;;5.59;100.00
41945;BME280;63122;52.424;13.458;2023-02-18T01:34:47;100901.56;;;5.62;100.00
41945;BME280;63122;52.424;13.458;2023-02-18T01:36:43;100920.09;;;5.59;100.00
41945;BME280;63122;52.424;13.458;2023-02-18T01:38:41;100910.69;;;5.56;100.00
41945;BME280;63122;52.424;13.458;2023-02-18T01:40:44;100907.13;;;5.57;100.00
41945;BME280;63122;52.424;13.458;2023-02-18T01:42:41;100909.63;;;5.59;100.00
41945;BME280;63122;52.424;13.458;2023-02-18T01:44:37;100911.06;;;5.63;100.00
41945;BME280;63122;52.424;13.458;2023-02-18T01:46:32;100920.09;;;5.59;100.00
41945;BME280;63122;52.424;13.458;2023-02-18T01:48:32;100910.09;;;5.53;100.00
41945;BME280;63122;52.424;13.458;2023-02-18T01:50:36;100913.66;;;5.52;100.00
41945;BME280;63122;52.424;13.458;2023-02-18T01:52:32;100917.09;;;5.52;100.00
41945;BME280;63122;52.424;13.458;2023-02-18T01:54:32;100914.25;;;5.55;100.00
41945;BME280;63122;52.424;13.458;2023-02-18T01:56:32;100898.53;;;5.55;100.00
41945;BME280;63122;52.424;13.458;2023-02-18T01:58:28;100922.81;;;5.57;100.00
41945;BME280;63122;52.424;13.458;2023-02-18T02:00:24;100918.88;;;5.52;100.00
41945;BME280;63122;52.424;13.458;2023-02-18T02:02:21;100926.03;;;5.50;100.00
41945;BME280;63122;52.424;13.458;2023-02-18T02:04:17;100925.16;;;5.49;100.00
41945;BME280;63122;52.424;13.458;2023-02-18T02:06:16;100911.28;;;5.48;100.00
41945;BME280;63122;52.424;13.458;2023-02-18T02:08:12;100918.16;;;5.50;100.00
41945;BME280;63122;52.424;13.458;2023-02-18T02:10:11;100921.00;;;5.46;100.00
41945;BME280;63122;52.424;13.458;2023-02-18T02:12:20;100937.75;;;5.44;100.00
41945;BME280;63122;52.424;13.458;2023-02-18T02:14:29;100908.88;;;5.45;100.00
41945;BME280;63122;52.424;13.458;2023-02-18T02:16:35;100909.22;;;5.41;100.00
41945;BME280;63122;52.424;13.458;2023-02-18T02:18:42;100912.44;;;5.44;100.00
41945;BME280;63122;52.424;13.458;2023-02-18T02:23:32;100936.09;;;5.43;100.00
41945;BME280;63122;52.424;13.458;2023-02-18T02:25:51;100921.34;;;5.42;100.00
41945;BME280;63122;52.424;13.458;2023-02-18T02:28:14;100943.94;;;5.43;100.00
41945;BME280;63122;52.424;13.458;2023-02-18T02:30:42;100923.34;;;5.38;100.00
41945;BME280;63122;52.424;13.458;2023-02-18T02:33:07;100901.22;;;5.42;100.00
41945;BME280;63122;52.424;13.458;2023-02-18T02:35:12;100938.81;;;5.41;100.00
41945;BME280;63122;52.424;13.458;2023-02-18T02:37:15;100923.97;;;5.42;100.00
41945;BME280;63122;52.424;13.458;2023-02-18T02:39:20;100924.78;;;5.42;100.00
41945;BME280;63122;52.424;13.458;2023-02-18T02:41:31;100908.50;;;5.39;100.00
41945;BME280;63122;52.424;13.458;2023-02-18T02:43:39;100906.59;;;5.41;100.00
41945;BME280;63122;52.424;13.458;2023-02-18T02:45:50;100921.44;;;5.40;100.00
41945;BME280;63122;52.424;13.458;2023-02-18T02:47:55;100913.50;;;5.42;100.00
41945;BME280;63122;52.424;13.458;2023-02-18T02:49:57;100926.56;;;5.42;100.00
41945;BME280;63122;52.424;13.458;2023-02-18T02:52:02;100955.34;;;5.42;100.00
41945;BME280;63122;52.424;13.458;2023-02-18T02:54:09;100936.41;;;5.38;100.00
41945;BME280;63122;52.424;13.458;2023-02-18T02:56:05;100917.50;;;5.35;100.00
41945;BME280;63122;52.424;13.458;2023-02-18T02:58:01;100930.47;;;5.36;100.00
41945;BME280;63122;52.424;13.458;2023-02-18T02:59:59;100939.88;;;5.39;100.00
41945;BME280;63122;52.424;13.458;2023-02-18T03:02:07;100930.00;;;5.42;100.00
41945;BME280;63122;52.424;13.458;2023-02-18T03:04:26;100938.22;;;5.38;100.00
41945;BME280;63122;52.424;13.458;2023-02-18T03:06:39;100934.75;;;5.37;100.00
41945;BME280;63122;52.424;13.458;2023-02-18T03:08:48;100937.38;;;5.37;100.00
41945;BME280;63122;52.424;13.458;2023-02-18T03:10:52;100937.38;;;5.37;100.00
41945;BME280;63122;52.424;13.458;2023-02-18T03:12:57;100942.94;;;5.32;100.00
41945;BME280;63122;52.424;13.458;2023-02-18T03:15:04;100940.34;;;5.32;100.00
41945;BME280;63122;52.424;13.458;2023-02-18T03:17:07;100924.50;;;5.34;100.00
41945;BME280;63122;52.424;13.458;2023-02-18T03:19:09;100916.78;;;5.32;100.00
41945;BME280;63122;52.424;13.458;2023-02-18T03:21:10;100927.13;;;5.34;100.00
41945;BME280;63122;52.424;13.458;2023-02-18T03:23:08;100923.78;;;5.32;100.00
41945;BME280;63122;52.424;13.458;2023-02-18T03:25:08;100918.69;;;5.30;100.00
41945;BME280;63122;52.424;13.458;2023-02-18T03:27:08;100931.63;;;5.32;100.00
41945;BME280;63122;52.424;13.458;2023-02-18T03:29:06;100929.97;;;5.31;100.00
41945;BME280;63122;52.424;13.458;2023-02-18T03:31:06;100938.66;;;5.31;100.00
41945;BME280;63122;52.424;13.458;2023-02-18T03:33:06;100938.03;;;5.28;100.00
41945;BME280;63122;52.424;13.458;2023-02-18T03:35:06;100919.81;;;5.26;100.00
41945;BME280;63122;52.424;13.458;2023-02-18T03:37:03;100922.34;;;5.28;100.00
41945;BME280;63122;52.424;13.458;2023-02-18T03:39:02;100919.81;;;5.26;100.00
41945;BME280;63122;52.424;13.458;2023-02-18T03:41:00;100917.09;;;5.28;100.00
41945;BME280;63122;52.424;13.458;2023-02-18T03:42:56;100933.44;;;5.31;100.00
41945;BME280;63122;52.424;13.458;2023-02-18T03:44:51;100926.19;;;5.35;100.00
41945;BME280;63122;52.424;13.458;2023-02-18T03:46:46;100926.91;;;5.37;100.00
41945;BME280;63122;52.424;13.458;2023-02-18T03:48:42;100927.75;;;5.38;100.00
41945;BME280;63122;52.424;13.458;2023-02-18T03:50:37;100932.34;;;5.34;100.00
41945;BME280;63122;52.424;13.458;2023-02-18T03:52:32;100925.47;;;5.33;100.00
41945;BME280;63122;52.424;13.458;2023-02-18T03:54:29;100925.78;;;5.28;100.00
41945;BME280;63122;52.424;13.458;2023-02-18T03:56:27;100919.81;;;5.26;100.00
41945;BME280;63122;52.424;13.458;2023-02-18T03:58:22;100918.88;;;5.27;100.00
41945;BME280;63122;52.424;13.458;2023-02-18T04:00:18;100929.47;;;5.26;100.00
41945;BME280;63122;52.424;13.458;2023-02-18T04:02:14;100930.41;;;5.25;100.00
41945;BME280;63122;52.424;13.458;2023-02-18T04:04:09;100924.47;;;5.23;100.00
41945;BME280;63122;52.424;13.458;2023-02-18T04:06:05;100929.78;;;5.21;100.00
41945;BME280;63122;52.424;13.458;2023-02-18T04:08:00;100923.97;;;5.17;100.00
41945;BME280;63122;52.424;13.458;2023-02-18T04:09:56;100925.41;;;5.22;100.00
41945;BME280;63122;52.424;13.458;2023-02-18T04:11:54;100931.81;;;5.17;100.00
41945;BME280;63122;52.424;13.458;2023-02-18T04:13:49;100925.63;;;5.18;100.00
41945;BME280;63122;52.424;13.458;2023-02-18T04:15:45;100920.59;;;5.15;100.00
41945;BME280;63122;52.424;13.458;2023-02-18T04:17:40;100937.03;;;5.17;100.00
41945;BME280;63122;52.424;13.458;2023-02-18T04:19:35;100940.78;;;5.13;100.00
41945;BME280;63122;52.424;13.458;2023-02-18T04:21:30;100928.56;;;5.14;100.00
41945;BME280;63122;52.424;13.458;2023-02-18T04:23:25;100935.56;;;5.13;100.00
41945;BME280;63122;52.424;13.458;2023-02-18T04:25:20;100932.13;;;5.13;100.00
41945;BME280;63122;52.424;13.458;2023-02-18T04:27:18;100945.28;;;5.11;100.00
41945;BME280;63122;52.424;13.458;2023-02-18T04:29:13;100940.06;;;5.11;100.00
41945;BME280;63122;52.424;13.458;2023-02-18T04:31:08;100946.25;;;5.10;100.00
41945;BME280;63122;52.424;13.458;2023-02-18T04:33:04;100950.88;;;5.07;100.00
41945;BME280;63122;52.424;13.458;2023-02-18T04:34:59;100934.47;;;5.04;100.00
41945;BME280;63122;52.424;13.458;2023-02-18T04:36:54;100940.50;;;5.05;100.00
41945;BME280;63122;52.424;13.458;2023-02-18T04:38:49;100946.69;;;5.04;100.00
41945;BME280;63122;52.424;13.458;2023-02-18T04:40:45;100943.84;;;5.07;100.00
41945;BME280;63122;52.424;13.458;2023-02-18T04:42:42;100945.50;;;5.08;100.00
41945;BME280;63122;52.424;13.458;2023-02-18T04:44:38;100960.25;;;5.09;100.00
41945;BME280;63122;52.424;13.458;2023-02-18T04:46:33;100943.97;;;5.06;100.00
41945;BME280;63122;52.424;13.458;2023-02-18T04:48:28;100963.22;;;5.04;100.00
41945;BME280;63122;52.424;13.458;2023-02-18T04:50:23;100967.59;;;5.04;100.00
41945;BME280;63122;52.424;13.458;2023-02-18T04:52:18;100958.94;;;5.03;100.00
41945;BME280;63122;52.424;13.458;2023-02-18T04:54:13;100963.53;;;5.00;100.00
41945;BME280;63122;52.424;13.458;2023-02-18T04:56:08;100954.97;;;4.98;100.00
41945;BME280;63122;52.424;13.458;2023-02-18T04:58:06;100956.72;;;4.97;100.00
41945;BME280;63122;52.424;13.458;2023-02-18T05:00:02;100960.69;;;5.03;100.00
41945;BME280;63122;52.424;13.458;2023-02-18T05:01:58;100956.50;;;5.00;100.00
41945;BME280;63122;52.424;13.458;2023-02-18T05:03:53;100954.63;;;5.02;100.00
41945;BME280;63122;52.424;13.458;2023-02-18T05:05:48;100963.41;;;5.01;100.00
41945;BME280;63122;52.424;13.458;2023-02-18T05:07:43;100966.03;;;5.01;100.00
41945;BME280;63122;52.424;13.458;2023-02-18T05:09:39;100959.03;;;5.02;100.00
41945;BME280;63122;52.424;13.458;2023-02-18T05:11:34;100963.22;;;5.04;100.00
41945;BME280;63122;52.424;13.458;2023-02-18T05:13:32;100963.94;;;5.07;100.00
41945;BME280;63122;52.424;13.458;2023-02-18T05:15:27;100949.81;;;5.09;100.00
41945;BME280;63122;52.424;13.458;2023-02-18T05:17:22;100952.41;;;5.09;100.00
41945;BME280;63122;52.424;13.458;2023-02-18T05:19:17;100953.88;;;5.13;100.00
41945;BME280;63122;52.424;13.458;2023-02-18T05:21:12;100955.66;;;5.13;100.00
41945;BME280;63122;52.424;13.458;2023-02-18T05:23:07;100959.09;;;5.13;100.00
41945;BME280;63122;52.424;13.458;2023-02-18T05:25:04;100958.16;;;5.14;100.00
41945;BME280;63122;52.424;13.458;2023-02-18T05:27:00;100951.25;;;5.13;100.00
41945;BME280;63122;52.424;13.458;2023-02-18T05:28:57;100945.19;;;5.13;100.00
41945;BME280;63122;52.424;13.458;2023-02-18T05:30:52;100948.31;;;5.18;100.00
41945;BME280;63122;52.424;13.458;2023-02-18T05:32:48;100948.41;;;5.16;100.00
41945;BME280;63122;52.424;13.458;2023-02-18T05:34:43;100952.59;;;5.19;100.00
41945;BME280;63122;52.424;13.458;2023-02-18T05:36:38;100946.44;;;5.20;100.00
41945;BME280;63122;52.424;13.458;2023-02-18T05:38:33;100937.75;;;5.19;100.00
41945;BME280;63122;52.424;13.458;2023-02-18T05:40:29;100937.75;;;5.19;100.00
41945;BME280;63122;52.424;13.458;2023-02-18T05:42:24;100935.16;;;5.19;100.00
41945;BME280;63122;52.424;13.458;2023-02-18T05:44:21;100945.47;;;5.21;100.00
41945;BME280;63122;52.424;13.458;2023-02-18T05:46:26;100949.75;;;5.22;100.00
41945;BME280;63122;52.424;13.458;2023-02-18T05:48:21;100935.66;;;5.25;100.00
41945;BME280;63122;52.424;13.458;2023-02-18T05:50:16;100935.53;;;5.26;100.00
41945;BME280;63122;52.424;13.458;2023-02-18T05:52:11;100937.31;;;5.26;100.00
41945;BME280;63122;52.424;13.458;2023-02-18T05:54:06;100935.66;;;5.25;100.00
41945;BME280;63122;52.424;13.458;2023-02-18T05:56:01;100940.66;;;5.28;100.00
41945;BME280;63122;52.424;13.458;2023-02-18T05:57:57;100930.19;;;5.28;100.00
41945;BME280;63122;52.424;13.458;2023-02-18T05:59:54;100931.00;;;5.28;100.00
41945;BME280;63122;52.424;13.458;2023-02-18T06:01:51;100939.59;;;5.30;100.00
41945;BME280;63122;52.424;13.458;2023-02-18T06:03:46;100933.53;;;5.30;100.00
41945;BME280;63122;52.424;13.458;2023-02-18T06:05:41;100935.19;;;5.31;100.00
41945;BME280;63122;52.424;13.458;2023-02-18T06:07:37;100935.81;;;5.35;100.00
41945;BME280;63122;52.424;13.458;2023-02-18T06:09:32;100925.47;;;5.33;100.00
41945;BME280;63122;52.424;13.458;2023-02-18T06:11:27;100939.59;;;5.30;100.00
41945;BME280;63122;52.424;13.458;2023-02-18T06:13:22;100937.00;;;5.30;100.00
41945;BME280;63122;52.424;13.458;2023-02-18T06:15:20;100938.53;;;5.33;100.00
41945;BME280;63122;52.424;13.458;2023-02-18T06:17:15;100935.09;;;5.32;100.00
41945;BME280;63122;52.424;13.458;2023-02-18T06:19:10;100939.25;;;5.35;100.00
41945;BME280;63122;52.424;13.458;2023-02-18T06:21:06;100934.03;;;5.35;100.00
41945;BME280;63122;52.424;13.458;2023-02-18T06:23:01;100921.06;;;5.33;100.00
41945;BME280;63122;52.424;13.458;2023-02-18T06:24:58;100935.81;;;5.35;100.00
41945;BME280;63122;52.424;13.458;2023-02-18T06:26:53;100934.88;;;5.36;100.00
41945;BME280;63122;52.424;13.458;2023-02-18T06:28:49;100930.25;;;5.39;100.00
41945;BME280;63122;52.424;13.458;2023-02-18T06:30:46;100935.59;;;5.38;100.00
41945;BME280;63122;52.424;13.458;2023-02-18T06:32:42;100925.94;;;5.38;100.00
41945;BME280;63122;52.424;13.458;2023-02-18T06:34:37;100943.09;;;5.42;100.00
41945;BME280;63122;52.424;13.458;2023-02-18T06:36:32;100925.72;;;5.41;100.00
41945;BME280;63122;52.424;13.458;2023-02-18T06:38:28;100924.91;;;5.41;100.00
41945;BME280;63122;52.424;13.458;2023-02-18T06:40:23;100933.16;;;5.47;100.00
41945;BME280;63122;52.424;13.458;2023-02-18T06:42:18;100922.22;;;5.54;100.00
41945;BME280;63122;52.424;13.458;2023-02-18T06:44:13;100928.75;;;5.48;100.00
41945;BME280;63122;52.424;13.458;2023-02-18T06:46:12;100927.06;;;5.47;100.00
41945;BME280;63122;52.424;13.458;2023-02-18T06:48:07;100919.22;;;5.47;100.00
41945;BME280;63122;52.424;13.458;2023-02-18T06:50:02;100928.97;;;5.45;100.00
41945;BME280;63122;52.424;13.458;2023-02-18T06:51:57;100921.97;;;5.45;100.00
41945;BME280;63122;52.424;13.458;2023-02-18T06:53:52;100914.59;;;5.51;100.00
41945;BME280;63122;52.424;13.458;2023-02-18T06:55:47;100906.97;;;5.47;100.00
41945;BME280;63122;52.424;13.458;2023-02-18T06:57:42;100906.38;;;5.44;100.00
41945;BME280;63122;52.424;13.458;2023-02-18T06:59:38;100916.72;;;5.45;100.00
41945;BME280;63122;52.424;13.458;2023-02-18T07:01:35;100905.31;;;5.46;100.00
41945;BME280;63122;52.424;13.458;2023-02-18T07:03:31;100918.28;;;5.48;100.00
41945;BME280;63122;52.424;13.458;2023-02-18T07:05:26;100915.56;;;5.50;100.00
41945;BME280;63122;52.424;13.458;2023-02-18T07:07:22;100910.69;;;5.56;100.00
41945;BME280;63122;52.424;13.458;2023-02-18T07:09:19;100910.81;;;5.55;100.00
41945;BME280;63122;52.424;13.458;2023-02-18T07:11:14;100910.69;;;5.56;100.00
41945;BME280;63122;52.424;13.458;2023-02-18T07:13:10;100905.97;;;5.61;100.00
41945;BME280;63122;52.424;13.458;2023-02-18T07:15:05;100908.22;;;5.66;100.00
41945;BME280;63122;52.424;13.458;2023-02-18T07:17:03;100922.97;;;5.67;100.00
41945;BME280;63122;52.424;13.458;2023-02-18T07:18:58;100903.72;;;5.68;100.00
41945;BME280;63122;52.424;13.458;2023-02-18T07:20:53;100907.66;;;5.74;100.00
41945;BME280;63122;52.424;13.458;2023-02-18T07:22:49;100912.56;;;5.79;100.00
41945;BME280;63122;52.424;13.458;2023-02-18T07:24:44;100908.50;;;5.74;100.00
41945;BME280;63122;52.424;13.458;2023-02-18T07:26:39;100925.16;;;5.73;100.00
41945;BME280;63122;52.424;13.458;2023-02-18T07:28:35;100903.47;;;5.71;100.00
41945;BME280;63122;52.424;13.458;2023-02-18T07:30:30;100899.41;;;5.67;100.00
41945;BME280;63122;52.424;13.458;2023-02-18T07:32:29;100889.09;;;5.66;100.00
41945;BME280;63122;52.424;13.458;2023-02-18T07:34:24;100897.75;;;5.66;100.00
41945;BME280;63122;52.424;13.458;2023-02-18T07:36:20;100906.69;;;5.64;100.00
41945;BME280;63122;52.424;13.458;2023-02-18T07:38:15;100892.25;;;5.58;100.00
41945;BME280;63122;52.424;13.458;2023-02-18T07:40:12;100894.88;;;5.58;100.00
41945;BME280;63122;52.424;13.458;2023-02-18T07:42:08;100913.53;;;5.53;100.00
41945;BME280;63122;52.424;13.458;2023-02-18T07:44:04;100900.56;;;5.52;100.00
41945;BME280;63122;52.424;13.458;2023-02-18T07:46:04;100905.09;;;5.50;100.00
41945;BME280;63122;52.424;13.458;2023-02-18T07:48:03;100889.47;;;5.48;100.00
41945;BME280;63122;52.424;13.458;2023-02-18T07:49:59;100876.53;;;5.46;100.00
41945;BME280;63122;52.424;13.458;2023-02-18T07:51:54;100884.56;;;5.43;100.00
41945;BME280;63122;52.424;13.458;2023-02-18T07:53:50;100874.13;;;5.43;100.00
41945;BME280;63122;52.424;13.458;2023-02-18T07:55:45;100864.59;;;5.42;100.00
41945;BME280;63122;52.424;13.458;2023-02-18T07:57:43;100875.66;;;5.35;100.00
41945;BME280;63122;52.424;13.458;2023-02-18T07:59:54;100876.47;;;5.35;100.00
41945;BME280;63122;52.424;13.458;2023-02-18T08:01:50;100864.81;;;5.39;100.00
41945;BME280;63122;52.424;13.458;2023-02-18T08:03:48;100875.28;;;5.39;100.00
41945;BME280;63122;52.424;13.458;2023-02-18T08:05:43;100874.72;;;5.47;100.00
41945;BME280;63122;52.424;13.458;2023-02-18T08:07:39;100882.19;;;5.40;100.00
41945;BME280;63122;52.424;13.458;2023-02-18T08:09:34;100879.53;;;5.29;100.00
41945;BME280;63122;52.424;13.458;2023-02-18T08:11:29;100873.97;;;5.33;100.00
41945;BME280;63122;52.424;13.458;2023-02-18T08:13:25;100865.28;;;5.33;100.00
41945;BME280;63122;52.424;13.458;2023-02-18T08:15:20;100859.78;;;5.25;100.00
41945;BME280;63122;52.424;13.458;2023-02-18T08:17:15;100859.56;;;5.28;100.00
41945;BME280;63122;52.424;13.458;2023-02-18T08:19:13;100851.59;;;5.29;100.00
41945;BME280;63122;52.424;13.458;2023-02-18T08:21:08;100860.06;;;5.33;100.00
41945;BME280;63122;52.424;13.458;2023-02-18T08:23:03;100855.66;;;5.33;100.00
41945;BME280;63122;52.424;13.458;2023-02-18T08:24:59;100847.69;;;5.35;100.00
41945;BME280;63122;52.424;13.458;2023-02-18T08:26:54;100838.06;;;5.36;100.00
41945;BME280;63122;52.424;13.458;2023-02-18T08:28:52;100834.84;;;5.32;100.00
41945;BME280;63122;52.424;13.458;2023-02-18T08:30:50;100843.38;;;5.23;100.00
41945;BME280;63122;52.424;13.458;2023-02-18T08:32:45;100836.56;;;5.20;100.00
41945;BME280;63122;52.424;13.458;2023-02-18T08:34:43;100838.72;;;5.26;100.00
41945;BME280;63122;52.424;13.458;2023-02-18T08:36:38;100835.84;;;5.18;100.00
41945;BME280;63122;52.424;13.458;2023-02-18T08:38:33;100829.41;;;5.11;100.00
41945;BME280;63122;52.424;13.458;2023-02-18T08:40:28;100829.28;;;5.12;100.00
41945;BME280;63122;52.424;13.458;2023-02-18T08:42:23;100823.47;;;5.09;100.00
41945;BME280;63122;52.424;13.458;2023-02-18T08:44:18;100823.56;;;5.07;100.00
41945;BME280;63122;52.424;13.458;2023-02-18T08:46:14;100826.06;;;5.09;100.00
41945;BME280;63122;52.424;13.458;2023-02-18T08:48:18;100823.31;;;5.10;100.00
41945;BME280;63122;52.424;13.458;2023-02-18T08:50:16;100815.97;;;5.15;100.00
41945;BME280;63122;52.424;13.458;2023-02-18T08:52:12;100821.44;;;5.12;100.00
41945;BME280;63122;52.424;13.458;2023-02-18T08:54:07;100809.69;;;5.18;100.00
41945;BME280;63122;52.424;13.458;2023-02-18T08:56:04;100806.03;;;5.21;100.00
41945;BME280;63122;52.424;13.458;2023-02-18T08:58:00;100813.88;;;5.21;100.00
41945;BME280;63122;52.424;13.458;2023-02-18T08:59:55;100811.91;;;5.11;100.00
41945;BME280;63122;52.424;13.458;2023-02-18T09:01:51;100808.94;;;5.04;100.00
41945;BME280;63122;52.424;13.458;2023-02-18T09:03:46;100810.59;;;5.06;100.00
41945;BME280;63122;52.424;13.458;2023-02-18T09:05:44;100808.09;;;5.04;100.00
41945;BME280;63122;52.424;13.458;2023-02-18T09:07:39;100811.88;;;5.00;100.00
41945;BME280;63122;52.424;13.458;2023-02-18T09:09:35;100807.69;;;4.97;100.00
41945;BME280;63122;52.424;13.458;2023-02-18T09:11:30;100804.25;;;4.97;100.00
41945;BME280;63122;52.424;13.458;2023-02-18T09:13:26;100795.97;;;5.03;100.00
41945;BME280;63122;52.424;13.458;2023-02-18T09:15:21;100784.88;;;4.99;100.00
41945;BME280;63122;52.424;13.458;2023-02-18T09:17:16;100785.03;;;5.09;100.00
41945;BME280;63122;52.424;13.458;2023-02-18T09:19:11;100781.97;;;5.15;100.00
41945;BME280;63122;52.424;13.458;2023-02-18T09:21:11;100770.84;;;5.25;100.00
41945;BME280;63122;52.424;13.458;2023-02-18T09:23:07;100769.78;;;5.27;100.00
41945;BME280;63122;52.424;13.458;2023-02-18T09:25:02;100769.97;;;5.13;100.00
41945;BME280;63122;52.424;13.458;2023-02-18T09:26:58;100762.16;;;5.24;100.00
41945;BME280;63122;52.424;13.458;2023-02-18T09:28:55;100760.84;;;5.18;100.00
41945;BME280;63122;52.424;13.458;2023-02-18T09:30:51;100759.44;;;5.26;100.00
41945;BME280;63122;52.424;13.458;2023-02-18T09:32:46;100760.50;;;5.23;100.00
41945;BME280;63122;52.424;13.458;2023-02-18T09:34:41;100762.31;;;5.34;100.00
41945;BME280;63122;52.424;13.458;2023-02-18T09:36:39;100750.16;;;5.22;100.00
41945;BME280;63122;52.424;13.458;2023-02-18T09:38:34;100747.19;;;5.26;100.00
41945;BME280;63122;52.424;13.458;2023-02-18T09:40:31;100743.16;;;5.33;100.00
41945;BME280;63122;52.424;13.458;2023-02-18T09:42:31;100744.94;;;5.33;100.00
41945;BME280;63122;52.424;13.458;2023-02-18T09:44:32;100746.03;;;5.30;100.00
41945;BME280;63122;52.424;13.458;2023-02-18T09:46:29;100736.84;;;5.36;100.00
41945;BME280;63122;52.424;13.458;2023-02-18T09:48:30;100720.81;;;5.41;100.00
41945;BME280;63122;52.424;13.458;2023-02-18T09:50:31;100715.22;;;5.34;100.00
41945;BME280;63122;52.424;13.458;2023-02-18T09:52:32;100716.16;;;5.33;100.00
41945;BME280;63122;52.424;13.458;2023-02-18T09:54:29;100720.91;;;5.28;100.00
41945;BME280;63122;52.424;13.458;2023-02-18T09:56:28;100704.50;;;5.37;100.00
41945;BME280;63122;52.424;13.458;2023-02-18T09:58:28;100692.84;;;5.41;100.00
41945;BME280;63122;52.424;13.458;2023-02-18T10:00:29;100691.56;;;5.36;100.00
41945;BME280;63122;52.424;13.458;2023-02-18T10:02:27;100690.00;;;5.33;100.00
41945;BME280;63122;52.424;13.458;2023-02-18T10:04:26;100674.22;;;5.35;100.00
41945;BME280;63122;52.424;13.458;2023-02-18T10:06:35;100674.22;;;5.35;100.00
41945;BME280;63122;52.424;13.458;2023-02-18T10:08:36;100677.41;;;5.38;100.00
41945;BME280;63122;52.424;13.458;2023-02-18T10:10:39;100674.06;;;5.25;100.00
41945;BME280;63122;52.424;13.458;2023-02-18T10:12:36;100674.78;;;5.27;100.00
41945;BME280;63122;52.424;13.458;2023-02-18T10:14:32;100673.50;;;5.32;100.00
41945;BME280;63122;52.424;13.458;2023-02-18T10:16:28;100678.00;;;5.42;100.00